Terminal Aerodrome Forecast
Issued by NWS

Home | Current Version | Previous Version | Text Only | Print | Product List | Glossary On
Versions: 1 2 3 4 5 6 7 8 9 10 11 12 13 14
000
FTUS44 KCRP 180530
TAFLRD
TAF
KLRD 180530Z 1806/1906 13015G21KT P6SM FEW030
     FM180900 15012KT P6SM SKC
     FM181500 15014G20KT P6SM SKC
     FM182200 13017G25KT P6SM FEW080=

USA.gov is the U.S. government's official web portal to all federal, state and local government web resources and services.